Time,TemperatureF,DewpointF,PressureIn,WindDirection,WindDirectionDegrees,WindSpeedMPH,WindSpeedGustMPH,Humidity,HourlyPrecipIn,Conditions,Clouds,dailyrainin,SoftwareType,DateUTC
2013-03-10 00:01:00,27.0,10.0,30.17,North,-999,-999.0,-999.0,49,-99.99,,,-99.99,,2013-03-10 07:01:00,
2013-03-10 00:11:00,25.0,10.0,30.17,North,-999,-999.0,-999.0,53,-99.99,,,-99.99,,2013-03-10 07:11:00,
2013-03-10 00:21:00,25.0,10.0,30.17,North,-999,-999.0,-999.0,53,-99.99,,,-99.99,,2013-03-10 07:21:00,
2013-03-10 00:31:00,27.0,10.0,30.17,North,-999,-999.0,-999.0,49,-99.99,,,-99.99,,2013-03-10 07:31:00,
2013-03-10 00:41:00,27.0,10.0,30.17,North,-999,-999.0,-999.0,49,-99.99,,,-99.99,,2013-03-10 07:41:00,
2013-03-10 00:52:00,27.0,10.0,30.16,North,-999,-999.0,-999.0,49,-99.99,,,-99.99,,2013-03-10 07:52:00,
2013-03-10 01:01:00,27.0,10.0,30.16,North,-999,-999.0,-999.0,49,-99.99,,,-99.99,,2013-03-10 08:01:00,
2013-03-10 01:11:00,27.0,10.0,30.17,North,-999,-999.0,-999.0,49,-99.99,,,-99.99,,2013-03-10 08:11:00,
2013-03-10 01:21:00,27.0,10.0,30.17,North,-999,-999.0,-999.0,49,-99.99,,,-99.99,,2013-03-10 08:21:00,
2013-03-10 01:31:00,25.0,10.0,30.17,North,-999,-999.0,-999.0,53,-99.99,,,-99.99,,2013-03-10 08:31:00,
2013-03-10 01:42:00,25.0,10.0,30.17,North,-999,-999.0,-999.0,53,-99.99,,,-99.99,,2013-03-10 08:42:00,
2013-03-10 01:51:00,25.0,10.0,30.16,North,-999,-999.0,-999.0,53,-99.99,,,-99.99,,2013-03-10 08:51:00,
2013-03-10 03:01:00,25.0,10.0,30.16,North,-999,-999.0,-999.0,53,-99.99,,,-99.99,,2013-03-10 09:01:00,
2013-03-10 03:11:00,25.0,10.0,30.16,North,-999,-999.0,-999.0,53,-99.99,,,-99.99,,2013-03-10 09:11:00,
2013-03-10 03:21:00,25.0,10.0,30.16,North,-999,-999.0,-999.0,53,-99.99,,,-99.99,,2013-03-10 09:21:00,
2013-03-10 03:31:00,21.0,9.0,30.15,North,-999,-999.0,-999.0,57,-99.99,,,-99.99,,2013-03-10 09:31:00,
2013-03-10 03:51:00,19.0,9.0,30.15,North,-999,-999.0,-999.0,62,-99.99,,,-99.99,,2013-03-10 09:51:00,
2013-03-10 04:01:00,19.0,9.0,30.15,North,-999,-999.0,-999.0,62,-99.99,,,-99.99,,2013-03-10 10:01:00,
2013-03-10 04:11:00,21.0,10.0,30.14,North,-999,-999.0,-999.0,62,-99.99,,,-99.99,,2013-03-10 10:11:00,
2013-03-10 04:21:00,21.0,10.0,30.14,North,-999,-999.0,-999.0,62,-99.99,,,-99.99,,2013-03-10 10:21:00,
2013-03-10 04:31:00,21.0,10.0,30.14,North,-999,-999.0,-999.0,62,-99.99,,,-99.99,,2013-03-10 10:31:00,
2013-03-10 04:41:00,21.0,10.0,30.14,North,-999,-999.0,-999.0,62,-99.99,,,-99.99,,2013-03-10 10:41:00,
2013-03-10 04:51:00,19.0,9.0,30.13,North,-999,-999.0,-999.0,62,-99.99,,,-99.99,,2013-03-10 10:51:00,
2013-03-10 05:01:00,19.0,9.0,30.13,North,-999,-999.0,-999.0,62,-99.99,,,-99.99,,2013-03-10 11:01:00,
2013-03-10 05:11:00,19.0,10.0,30.13,North,-999,-999.0,-999.0,67,-99.99,,,-99.99,,2013-03-10 11:11:00,
2013-03-10 05:21:00,19.0,10.0,30.13,North,-999,-999.0,-999.0,67,-99.99,,,-99.99,,2013-03-10 11:21:00,
2013-03-10 05:31:00,21.0,10.0,30.14,North,-999,-999.0,-999.0,62,-99.99,,,-99.99,,2013-03-10 11:31:00,
2013-03-10 05:42:00,21.0,10.0,30.14,North,-999,-999.0,-999.0,62,-99.99,,,-99.99,,2013-03-10 11:42:00,
2013-03-10 05:52:00,21.0,12.0,30.14,North,-999,-999.0,-999.0,67,-99.99,,,-99.99,,2013-03-10 11:52:00,
2013-03-10 06:01:00,21.0,12.0,30.14,North,-999,-999.0,-999.0,67,-99.99,,,-99.99,,2013-03-10 12:01:00,
2013-03-10 06:11:00,23.0,12.0,30.14,North,-999,-999.0,-999.0,62,-99.99,,,-99.99,,2013-03-10 12:11:00,
2013-03-10 06:21:00,23.0,12.0,30.14,North,-999,-999.0,-999.0,62,-99.99,,,-99.99,,2013-03-10 12:21:00,
2013-03-10 06:31:00,21.0,10.0,30.15,North,-999,-999.0,-999.0,62,-99.99,,,-99.99,,2013-03-10 12:31:00,
2013-03-10 06:42:00,21.0,10.0,30.15,North,-999,-999.0,-999.0,62,-99.99,,,-99.99,,2013-03-10 12:42:00,
2013-03-10 06:51:00,21.0,12.0,30.15,North,-999,-999.0,-999.0,67,-99.99,,,-99.99,,2013-03-10 12:51:00,
2013-03-10 07:01:00,21.0,12.0,30.15,North,-999,-999.0,-999.0,67,-99.99,,,-99.99,,2013-03-10 13:01:00,
2013-03-10 07:11:00,23.0,12.0,30.15,North,-999,-999.0,-999.0,62,-99.99,,,-99.99,,2013-03-10 13:11:00,
2013-03-10 07:21:00,23.0,12.0,30.15,North,-999,-999.0,-999.0,62,-99.99,,,-99.99,,2013-03-10 13:21:00,
2013-03-10 07:31:00,21.0,10.0,30.15,North,-999,-999.0,-999.0,62,-99.99,,,-99.99,,2013-03-10 13:31:00,
2013-03-10 07:41:00,21.0,10.0,30.15,North,-999,-999.0,-999.0,62,-99.99,,,-99.99,,2013-03-10 13:41:00,
2013-03-10 07:51:00,23.0,12.0,30.15,North,-999,-999.0,-999.0,62,-99.99,,,-99.99,,2013-03-10 13:51:00,
2013-03-10 08:01:00,23.0,12.0,30.15,North,-999,-999.0,-999.0,62,-99.99,,,-99.99,,2013-03-10 14:01:00,
2013-03-10 08:11:00,21.0,10.0,30.15,North,-999,-999.0,-999.0,62,-99.99,,,-99.99,,2013-03-10 14:11:00,
2013-03-10 08:21:00,21.0,10.0,30.15,North,-999,-999.0,-999.0,62,-99.99,,,-99.99,,2013-03-10 14:21:00,
2013-03-10 08:31:00,25.0,16.0,30.15,North,-999,-999.0,-999.0,68,-99.99,,,-99.99,,2013-03-10 14:31:00,
2013-03-10 08:41:00,25.0,16.0,30.15,North,-999,-999.0,-999.0,68,-99.99,,,-99.99,,2013-03-10 14:41:00,
2013-03-10 08:51:00,27.0,14.0,30.15,North,-999,-999.0,-999.0,58,-99.99,,,-99.99,,2013-03-10 14:51:00,
2013-03-10 09:01:00,27.0,14.0,30.15,North,-999,-999.0,-999.0,58,-99.99,,,-99.99,,2013-03-10 15:01:00,
2013-03-10 09:11:00,28.0,16.0,30.15,North,-999,-999.0,-999.0,58,-99.99,,,-99.99,,2013-03-10 15:11:00,
2013-03-10 09:21:00,28.0,16.0,30.15,North,-999,-999.0,-999.0,58,-99.99,,,-99.99,,2013-03-10 15:21:00,
2013-03-10 09:31:00,28.0,16.0,30.16,North,-999,-999.0,-999.0,58,-99.99,,,-99.99,,2013-03-10 15:31:00,
2013-03-10 09:41:00,28.0,16.0,30.16,North,-999,-999.0,-999.0,58,-99.99,,,-99.99,,2013-03-10 15:41:00,
2013-03-10 09:51:00,30.0,16.0,30.15,North,-999,-999.0,-999.0,54,-99.99,,,-99.99,,2013-03-10 15:51:00,
2013-03-10 10:01:00,30.0,16.0,30.15,North,-999,-999.0,-999.0,54,-99.99,,,-99.99,,2013-03-10 16:01:00,
2013-03-10 10:11:00,32.0,16.0,30.15,North,-999,-999.0,-999.0,50,-99.99,,,-99.99,,2013-03-10 16:11:00,
2013-03-10 10:21:00,32.0,16.0,30.15,North,-999,-999.0,-999.0,50,-99.99,,,-99.99,,2013-03-10 16:21:00,
2013-03-10 10:31:00,34.0,16.0,30.15,North,-999,-999.0,-999.0,47,-99.99,,,-99.99,,2013-03-10 16:31:00,
2013-03-10 10:41:00,34.0,16.0,30.15,North,-999,-999.0,-999.0,47,-99.99,,,-99.99,,2013-03-10 16:41:00,
2013-03-10 10:51:00,36.0,18.0,30.15,North,-999,-999.0,-999.0,47,-99.99,,,-99.99,,2013-03-10 16:51:00,
2013-03-10 11:01:00,36.0,18.0,30.15,North,-999,-999.0,-999.0,47,-99.99,,,-99.99,,2013-03-10 17:01:00,
2013-03-10 11:11:00,39.0,18.0,30.14,North,-999,-999.0,-999.0,41,-99.99,,,-99.99,,2013-03-10 17:11:00,
2013-03-10 11:21:00,39.0,18.0,30.14,North,-999,-999.0,-999.0,41,-99.99,,,-99.99,,2013-03-10 17:21:00,
2013-03-10 11:31:00,41.0,18.0,30.14,North,-999,-999.0,-999.0,38,-99.99,,,-99.99,,2013-03-10 17:31:00,
2013-03-10 11:41:00,41.0,18.0,30.14,North,-999,-999.0,-999.0,38,-99.99,,,-99.99,,2013-03-10 17:41:00,
2013-03-10 11:51:00,43.0,16.0,30.13,North,-999,-999.0,-999.0,33,-99.99,,,-99.99,,2013-03-10 17:51:00,
2013-03-10 12:01:00,43.0,16.0,30.13,North,-999,-999.0,-999.0,33,-99.99,,,-99.99,,2013-03-10 18:01:00,
2013-03-10 12:11:00,45.0,16.0,30.12,North,-999,-999.0,-999.0,30,-99.99,,,-99.99,,2013-03-10 18:11:00,
2013-03-10 12:21:00,45.0,16.0,30.12,North,-999,-999.0,-999.0,30,-99.99,,,-99.99,,2013-03-10 18:21:00,
2013-03-10 12:31:00,46.0,18.0,30.10,North,-999,-999.0,-999.0,31,-99.99,,,-99.99,,2013-03-10 18:31:00,
2013-03-10 12:41:00,46.0,18.0,30.10,North,-999,-999.0,-999.0,31,-99.99,,,-99.99,,2013-03-10 18:41:00,
2013-03-10 12:52:00,48.0,18.0,30.09,North,-999,-999.0,-999.0,29,-99.99,,,-99.99,,2013-03-10 18:52:00,
2013-03-10 13:01:00,48.0,18.0,30.09,North,-999,-999.0,-999.0,29,-99.99,,,-99.99,,2013-03-10 19:01:00,
2013-03-10 13:11:00,48.0,18.0,30.09,North,-999,-999.0,-999.0,29,-99.99,,,-99.99,,2013-03-10 19:11:00,
2013-03-10 13:21:00,48.0,18.0,30.09,North,-999,-999.0,-999.0,29,-99.99,,,-99.99,,2013-03-10 19:21:00,
2013-03-10 13:31:00,52.0,18.0,30.08,North,-999,-999.0,-999.0,25,-99.99,,,-99.99,,2013-03-10 19:31:00,
2013-03-10 13:42:00,52.0,18.0,30.08,North,-999,-999.0,-999.0,25,-99.99,,,-99.99,,2013-03-10 19:42:00,
2013-03-10 13:53:00,52.0,18.0,30.07,North,-999,-999.0,-999.0,25,-99.99,,,-99.99,,2013-03-10 19:53:00,
2013-03-10 14:02:00,52.0,18.0,30.07,North,-999,-999.0,-999.0,25,-99.99,,,-99.99,,2013-03-10 20:02:00,
2013-03-10 14:12:00,54.0,16.0,30.05,North,-999,-999.0,-999.0,22,-99.99,,,-99.99,,2013-03-10 20:12:00,
2013-03-10 14:22:00,54.0,16.0,30.05,North,-999,-999.0,-999.0,22,-99.99,,,-99.99,,2013-03-10 20:22:00,
2013-03-10 14:32:00,54.0,18.0,30.04,North,-999,-999.0,-999.0,23,-99.99,,,-99.99,,2013-03-10 20:32:00,
2013-03-10 14:42:00,54.0,18.0,30.04,North,-999,-999.0,-999.0,23,-99.99,,,-99.99,,2013-03-10 20:42:00,
2013-03-10 14:52:00,55.0,16.0,30.03,North,-999,-999.0,-999.0,20,-99.99,,,-99.99,,2013-03-10 20:52:00,
2013-03-10 15:02:00,55.0,16.0,30.03,North,-999,-999.0,-999.0,20,-99.99,,,-99.99,,2013-03-10 21:02:00,
2013-03-10 15:11:00,55.0,16.0,30.02,North,-999,-999.0,-999.0,20,-99.99,,,-99.99,,2013-03-10 21:11:00,
2013-03-10 15:22:00,55.0,16.0,30.02,North,-999,-999.0,-999.0,20,-99.99,,,-99.99,,2013-03-10 21:22:00,
2013-03-10 15:32:00,57.0,12.0,30.01,North,-999,-999.0,-999.0,16,-99.99,,,-99.99,,2013-03-10 21:32:00,
2013-03-10 15:42:00,57.0,12.0,30.01,North,-999,-999.0,-999.0,16,-99.99,,,-99.99,,2013-03-10 21:42:00,
2013-03-10 15:51:00,57.0,12.0,30.00,North,-999,-999.0,-999.0,16,-99.99,,,-99.99,,2013-03-10 21:51:00,
2013-03-10 16:02:00,57.0,12.0,30.00,North,-999,-999.0,-999.0,16,-99.99,,,-99.99,,2013-03-10 22:02:00,
2013-03-10 16:11:00,57.0,18.0,29.99,North,-999,-999.0,-999.0,20,-99.99,,,-99.99,,2013-03-10 22:11:00,
2013-03-10 16:22:00,57.0,18.0,29.99,North,-999,-999.0,-999.0,20,-99.99,,,-99.99,,2013-03-10 22:22:00,
2013-03-10 16:32:00,57.0,16.0,29.99,North,-999,-999.0,-999.0,19,-99.99,,,-99.99,,2013-03-10 22:32:00,
2013-03-10 16:42:00,57.0,16.0,29.99,North,-999,-999.0,-999.0,19,-99.99,,,-99.99,,2013-03-10 22:42:00,
2013-03-10 16:52:00,57.0,16.0,29.99,North,-999,-999.0,-999.0,19,-99.99,,,-99.99,,2013-03-10 22:52:00,
2013-03-10 17:02:00,57.0,16.0,29.99,North,-999,-999.0,-999.0,19,-99.99,,,-99.99,,2013-03-10 23:02:00,
2013-03-10 17:12:00,55.0,16.0,29.99,North,-999,-999.0,-999.0,20,-99.99,,,-99.99,,2013-03-10 23:12:00,
2013-03-10 17:22:00,55.0,16.0,29.99,North,-999,-999.0,-999.0,20,-99.99,,,-99.99,,2013-03-10 23:22:00,
2013-03-10 17:32:00,55.0,12.0,29.99,North,-999,-999.0,-999.0,17,-99.99,,,-99.99,,2013-03-10 23:32:00,
2013-03-10 17:42:00,55.0,12.0,29.99,North,-999,-999.0,-999.0,17,-99.99,,,-99.99,,2013-03-10 23:42:00,
2013-03-10 17:51:00,55.0,12.0,29.99,North,-999,-999.0,-999.0,17,-99.99,,,-99.99,,2013-03-10 23:51:00,
2013-03-10 18:02:00,55.0,12.0,29.99,North,-999,-999.0,-999.0,17,-99.99,,,-99.99,,2013-03-11 00:02:00,
2013-03-10 18:12:00,55.0,12.0,29.98,North,-999,-999.0,-999.0,17,-99.99,,,-99.99,,2013-03-11 00:12:00,
2013-03-10 18:22:00,55.0,12.0,29.98,North,-999,-999.0,-999.0,17,-99.99,,,-99.99,,2013-03-11 00:22:00,
2013-03-10 18:32:00,54.0,10.0,29.99,North,-999,-999.0,-999.0,17,-99.99,,,-99.99,,2013-03-11 00:32:00,
2013-03-10 18:42:00,54.0,10.0,29.99,North,-999,-999.0,-999.0,17,-99.99,,,-99.99,,2013-03-11 00:42:00,
2013-03-10 18:52:00,52.0,12.0,29.99,North,-999,-999.0,-999.0,20,-99.99,,,-99.99,,2013-03-11 00:52:00,
2013-03-10 19:02:00,52.0,12.0,29.99,North,-999,-999.0,-999.0,20,-99.99,,,-99.99,,2013-03-11 01:02:00,
2013-03-10 19:12:00,50.0,10.0,29.99,North,-999,-999.0,-999.0,19,-99.99,,,-99.99,,2013-03-11 01:12:00,
2013-03-10 19:22:00,50.0,10.0,29.99,North,-999,-999.0,-999.0,19,-99.99,,,-99.99,,2013-03-11 01:22:00,
2013-03-10 19:32:00,50.0,14.0,29.98,North,-999,-999.0,-999.0,23,-99.99,,,-99.99,,2013-03-11 01:32:00,
2013-03-10 19:42:00,50.0,14.0,29.98,North,-999,-999.0,-999.0,23,-99.99,,,-99.99,,2013-03-11 01:42:00,
2013-03-10 19:52:00,50.0,12.0,29.99,North,-999,-999.0,-999.0,21,-99.99,,,-99.99,,2013-03-11 01:52:00,
2013-03-10 20:02:00,50.0,12.0,29.99,North,-999,-999.0,-999.0,21,-99.99,,,-99.99,,2013-03-11 02:02:00,
2013-03-10 20:12:00,48.0,10.0,29.99,North,-999,-999.0,-999.0,21,-99.99,,,-99.99,,2013-03-11 02:12:00,
2013-03-10 20:22:00,48.0,10.0,29.99,North,-999,-999.0,-999.0,21,-99.99,,,-99.99,,2013-03-11 02:22:00,
2013-03-10 20:32:00,48.0,12.0,29.99,North,-999,-999.0,-999.0,23,-99.99,,,-99.99,,2013-03-11 02:32:00,
2013-03-10 20:42:00,48.0,12.0,29.99,North,-999,-999.0,-999.0,23,-99.99,,,-99.99,,2013-03-11 02:42:00,
2013-03-10 20:52:00,48.0,14.0,29.99,North,-999,-999.0,-999.0,24,-99.99,,,-99.99,,2013-03-11 02:52:00,
2013-03-10 21:02:00,48.0,14.0,29.99,North,-999,-999.0,-999.0,24,-99.99,,,-99.99,,2013-03-11 03:02:00,
2013-03-10 21:11:00,48.0,14.0,29.98,North,-999,-999.0,-999.0,24,-99.99,,,-99.99,,2013-03-11 03:11:00,
2013-03-10 21:22:00,48.0,14.0,29.98,North,-999,-999.0,-999.0,24,-99.99,,,-99.99,,2013-03-11 03:22:00,
2013-03-10 21:31:00,46.0,14.0,29.98,North,-999,-999.0,-999.0,26,-99.99,,,-99.99,,2013-03-11 03:31:00,
2013-03-10 21:42:00,46.0,14.0,29.98,North,-999,-999.0,-999.0,26,-99.99,,,-99.99,,2013-03-11 03:42:00,
2013-03-10 21:51:00,46.0,14.0,29.97,North,-999,-999.0,-999.0,26,-99.99,,,-99.99,,2013-03-11 03:51:00,
2013-03-10 22:02:00,46.0,14.0,29.97,North,-999,-999.0,-999.0,26,-99.99,,,-99.99,,2013-03-11 04:02:00,
2013-03-10 22:12:00,46.0,16.0,29.98,North,-999,-999.0,-999.0,28,-99.99,,,-99.99,,2013-03-11 04:12:00,
2013-03-10 22:22:00,46.0,16.0,29.98,North,-999,-999.0,-999.0,28,-99.99,,,-99.99,,2013-03-11 04:22:00,
2013-03-10 22:32:00,46.0,14.0,29.97,North,-999,-999.0,-999.0,26,-99.99,,,-99.99,,2013-03-11 04:32:00,
2013-03-10 22:42:00,46.0,14.0,29.97,North,-999,-999.0,-999.0,26,-99.99,,,-99.99,,2013-03-11 04:42:00,
2013-03-10 22:52:00,46.0,12.0,29.98,North,-999,-999.0,-999.0,24,-99.99,,,-99.99,,2013-03-11 04:52:00,
2013-03-10 23:02:00,46.0,12.0,29.98,North,-999,-999.0,-999.0,24,-99.99,,,-99.99,,2013-03-11 05:02:00,
2013-03-10 23:11:00,45.0,16.0,29.97,North,-999,-999.0,-999.0,30,-99.99,,,-99.99,,2013-03-11 05:11:00,
2013-03-10 23:22:00,45.0,16.0,29.97,North,-999,-999.0,-999.0,30,-99.99,,,-99.99,,2013-03-11 05:22:00,
2013-03-10 23:32:00,45.0,18.0,29.97,North,-999,-999.0,-999.0,33,-99.99,,,-99.99,,2013-03-11 05:32:00,
2013-03-10 23:42:00,45.0,18.0,29.97,North,-999,-999.0,-999.0,33,-99.99,,,-99.99,,2013-03-11 05:42:00,
2013-03-10 23:51:00,45.0,16.0,29.98,North,-999,-999.0,-999.0,30,-99.99,,,-99.99,,2013-03-11 05:51:00,